Time;durP1;ratioP1;P1;durP2;ratioP2;P2;SDS_P1;SDS_P2;PMS_P1;PMS_P2;Temp;Humidity;BMP_temperature;BMP_pressure;BME280_temperature;BME280_humidity;BME280_pressure;Samples;Min_cycle;Max_cycle;Signal;HPM_P1;HPM_P2
2022/07/28 00:00:10;;;;;;;3.50;1.83;;;;;;;14.58;63.14;101895.66;4995190;28;20458;-86
2022/07/28 00:02:36;;;;;;;2.20;1.70;;;;;;;14.55;63.43;101906.16;4995078;28;20446;-85
2022/07/28 00:05:02;;;;;;;2.60;1.67;;;;;;;14.56;63.05;101893.06;4995289;28;20351;-86
2022/07/28 00:07:27;;;;;;;2.50;1.85;;;;;;;14.54;62.56;101892.19;4996049;28;20088;-86
2022/07/28 00:09:52;;;;;;;3.10;1.80;;;;;;;14.51;63.42;101894.88;4995053;28;20030;-87
2022/07/28 00:12:18;;;;;;;1.60;1.50;;;;;;;14.51;63.40;101902.72;4995509;28;20062;-88
2022/07/28 00:14:43;;;;;;;2.37;1.50;;;;;;;14.50;64.07;101903.59;4995303;28;20149;-87
2022/07/28 00:17:08;;;;;;;1.57;1.40;;;;;;;14.51;63.12;101900.09;4994515;28;20876;-86
2022/07/28 00:19:34;;;;;;;2.93;1.77;;;;;;;14.47;63.01;101893.19;4995578;28;20022;-87
2022/07/28 00:21:59;;;;;;;4.20;1.80;;;;;;;14.46;62.79;101899.28;4994973;28;20031;-87
2022/07/28 00:24:25;;;;;;;1.50;1.40;;;;;;;14.48;62.64;101897.53;4994810;28;20038;-87
2022/07/28 00:26:50;;;;;;;2.10;1.23;;;;;;;14.45;62.73;101901.06;4994977;28;20029;-88
2022/07/28 00:29:16;;;;;;;2.00;1.50;;;;;;;14.38;63.66;101891.56;4994797;28;20052;-88
2022/07/28 00:31:41;;;;;;;1.60;1.50;;;;;;;14.37;63.48;101895.06;4995054;28;20062;-88
2022/07/28 00:34:06;;;;;;;2.57;1.70;;;;;;;14.32;64.32;101895.13;4995072;28;20033;-87
2022/07/28 00:36:32;;;;;;;5.33;2.03;;;;;;;14.22;63.70;101893.53;4994934;28;20035;-87
2022/07/28 00:38:57;;;;;;;3.37;1.80;;;;;;;14.16;64.95;101888.41;4994620;28;20077;-87
2022/07/28 00:41:41;;;;;;;3.47;1.90;;;;;;;14.14;63.75;101888.41;4995172;28;20026;-88
2022/07/28 00:44:07;;;;;;;4.97;2.00;;;;;;;14.07;65.09;101886.78;4995013;28;20057;-87
2022/07/28 00:46:49;;;;;;;3.95;2.00;;;;;;;14.02;64.93;101892.06;4994302;28;20050;-87
2022/07/28 00:49:14;;;;;;;3.60;1.90;;;;;;;13.99;65.40;101889.47;4994625;28;20027;-86
2022/07/28 00:51:40;;;;;;;1.63;1.53;;;;;;;14.04;64.95;101892.91;4994303;28;20430;-87
2022/07/28 00:54:20;;;;;;;4.20;1.70;;;;;;;13.95;65.80;101887.81;4994964;28;20080;-86
2022/07/28 00:56:45;;;;;;;4.45;2.00;;;;;;;13.93;64.85;101878.25;4994963;28;20041;-87
2022/07/28 00:59:11;;;;;;;2.73;1.80;;;;;;;13.91;65.78;101870.47;4994200;28;20022;-87
2022/07/28 01:01:36;;;;;;;4.77;2.17;;;;;;;13.86;65.49;101873.13;4994289;28;20434;-87
2022/07/28 01:04:20;;;;;;;3.60;1.80;;;;;;;13.85;65.42;101862.69;4994108;28;20059;-87
2022/07/28 01:07:32;;;;;;;1.77;1.40;;;;;;;13.82;66.21;101868.81;4994467;28;20030;-87
2022/07/28 01:10:07;;;;;;;3.15;1.80;;;;;;;13.83;65.33;101867.94;4992890;28;20395;-87
2022/07/28 01:12:57;;;;;;;2.53;1.50;;;;;;;13.83;64.44;101874.91;4994080;28;20026;-86
2022/07/28 01:15:22;;;;;;;2.40;1.55;;;;;;;13.84;64.76;101876.66;4994297;28;20030;-88
2022/07/28 01:18:16;;;;;;;1.43;1.30;;;;;;;13.83;64.17;101874.91;4994701;28;20033;-87
2022/07/28 01:21:39;;;;;;;1.27;1.15;;;;;;;13.80;65.05;101877.56;4993719;28;20034;-88
2022/07/28 01:24:10;;;;;;;1.45;1.35;;;;;;;13.72;65.81;101870.69;4895791;29;20032;-85
2022/07/28 01:26:59;;;;;;;1.50;1.40;;;;;;;13.72;65.00;101872.44;4928558;28;20041;-86
2022/07/28 01:29:42;;;;;;;1.60;1.27;;;;;;;13.71;64.76;101866.34;4994116;28;20034;-87
2022/07/28 01:32:15;;;;;;;1.27;1.17;;;;;;;13.65;66.65;101861.19;4993233;28;20026;-89
2022/07/28 01:34:56;;;;;;;1.38;1.27;;;;;;;13.65;64.94;101863.81;4993643;28;20037;-88
2022/07/28 01:37:28;;;;;;;1.67;1.30;;;;;;;13.67;64.66;101869.03;4993738;28;20034;-86
2022/07/28 01:40:00;;;;;;;2.30;1.42;;;;;;;13.59;65.77;101866.50;4993953;28;20068;-85
2022/07/28 01:42:32;;;;;;;1.42;1.33;;;;;;;13.60;64.71;101863.00;4993634;28;20026;-87
2022/07/28 01:45:01;;;;;;;1.38;1.27;;;;;;;13.56;65.65;101858.69;4985644;28;20039;-86
2022/07/28 01:47:28;;;;;;;1.48;1.13;;;;;;;13.54;65.64;101852.63;4993683;28;20533;-87
2022/07/28 01:49:56;;;;;;;1.05;1.05;;;;;;;13.54;65.95;101858.72;4992405;28;20041;-86
2022/07/28 01:52:22;;;;;;;1.10;1.00;;;;;;;13.52;65.11;101852.66;4993401;28;20051;-88
2022/07/28 01:54:59;;;;;;;2.42;1.38;;;;;;;13.44;66.50;101847.53;4993078;28;20026;-86
2022/07/28 01:57:28;;;;;;;1.10;1.00;;;;;;;13.46;65.08;101850.09;4993105;28;20031;-86
2022/07/28 01:59:55;;;;;;;1.40;1.30;;;;;;;13.42;65.63;101846.69;4993210;28;20084;-86
2022/07/28 02:02:48;;;;;;;0.90;0.90;;;;;;;13.46;65.05;101846.66;4993565;28;20038;-87
2022/07/28 02:05:31;;;;;;;0.93;0.80;;;;;;;13.45;65.44;101845.81;4993536;28;20033;-87
2022/07/28 02:08:00;;;;;;;1.48;0.90;;;;;;;13.44;65.51;101836.25;4993721;28;20026;-86
2022/07/28 02:10:27;;;;;;;1.92;1.50;;;;;;;13.35;66.32;101842.38;4993021;28;20032;-86
2022/07/28 02:13:09;;;;;;;1.52;1.40;;;;;;;13.29;66.32;101837.22;4993028;28;20461;-86
2022/07/28 02:15:36;;;;;;;3.53;1.60;;;;;;;13.27;67.10;101836.41;4993377;28;20068;-86
2022/07/28 02:18:03;;;;;;;1.65;1.48;;;;;;;13.24;65.77;101829.47;4992825;28;20089;-87
2022/07/28 02:20:29;;;;;;;1.00;1.00;;;;;;;13.26;66.16;101837.28;4994322;28;20030;-87
2022/07/28 02:23:08;;;;;;;2.08;1.63;;;;;;;13.20;66.83;101829.50;4988424;28;20065;-86
2022/07/28 02:25:36;;;;;;;1.50;1.40;;;;;;;13.18;65.48;101828.66;4997156;28;20029;-86
2022/07/28 02:28:21;;;;;;;1.30;1.17;;;;;;;13.19;65.52;101833.00;4996953;28;20031;-87
2022/07/28 02:30:56;;;;;;;2.05;1.20;;;;;;;13.22;66.13;101827.75;4997104;28;20030;-87
2022/07/28 02:33:33;;;;;;;2.80;1.40;;;;;;;13.18;66.82;101823.44;4996924;28;20038;-87
2022/07/28 02:36:27;;;;;;;1.30;1.30;;;;;;;13.14;65.94;101830.44;4996679;28;20064;-85
2022/07/28 02:38:55;;;;;;;2.38;1.70;;;;;;;13.10;66.35;101829.59;4996364;28;20387;-86
2022/07/28 02:41:25;;;;;;;1.30;1.20;;;;;;;13.11;65.66;101833.94;4997760;28;20065;-86
2022/07/28 02:44:16;;;;;;;1.90;1.75;;;;;;;13.06;66.20;101833.09;4996440;28;20018;-86
2022/07/28 02:47:00;;;;;;;3.40;1.80;;;;;;;13.02;66.18;101836.66;4997212;28;20037;-86
2022/07/28 02:49:34;;;;;;;3.08;1.70;;;;;;;13.00;66.33;101835.78;4997141;28;20385;-86
2022/07/28 02:52:07;;;;;;;1.52;1.42;;;;;;;13.01;65.65;101834.91;4995961;28;20518;-87
2022/07/28 02:54:33;;;;;;;1.00;1.00;;;;;;;13.04;65.74;101834.91;4996576;28;20395;-87
2022/07/28 02:57:00;;;;;;;1.90;1.70;;;;;;;13.01;66.20;101837.53;4996332;28;20494;-86
2022/07/28 02:59:26;;;;;;;2.10;1.92;;;;;;;12.92;67.08;101835.00;4996894;28;20482;-86
2022/07/28 03:01:52;;;;;;;;;;;;;;;12.91;66.48;101841.94;4997074;28;20038;-87
2022/07/28 03:07:03;;;;;;;4.28;1.90;;;;;;;12.87;67.17;101831.56;4996197;28;20398;-86
2022/07/28 03:09:28;;;;;;;3.60;1.70;;;;;;;12.86;66.88;101829.84;4996227;28;20467;-87
2022/07/28 03:11:54;;;;;;;2.30;1.53;;;;;;;12.83;66.96;101830.72;4995732;28;20042;-85
2022/07/28 03:14:19;;;;;;;2.60;1.30;;;;;;;12.80;67.49;101825.53;4996707;28;20490;-88
2022/07/28 03:16:45;;;;;;;1.43;1.33;;;;;;;12.79;66.40;101826.41;4996900;28;20022;-87
2022/07/28 03:19:10;;;;;;;2.07;1.50;;;;;;;12.78;66.70;101827.28;4995681;28;20030;-87
2022/07/28 03:21:36;;;;;;;1.67;1.57;;;;;;;12.71;67.15;101826.50;4996547;28;20023;-87
2022/07/28 03:24:02;;;;;;;2.70;1.50;;;;;;;12.70;66.28;101829.09;4996591;28;20049;-87
2022/07/28 03:26:39;;;;;;;1.17;1.17;;;;;;;12.70;66.51;101843.00;4995683;28;20550;-87
2022/07/28 03:29:06;;;;;;;1.42;1.30;;;;;;;12.70;66.95;101845.63;4996291;28;20285;-88
2022/07/28 03:31:48;;;;;;;2.25;1.90;;;;;;;12.57;67.26;101839.63;4995667;28;20038;-87
2022/07/28 03:34:14;;;;;;;2.90;2.00;;;;;;;12.47;68.66;101835.34;4995768;28;20085;-88
2022/07/28 03:36:43;;;;;;;1.80;1.70;;;;;;;12.47;67.28;101836.25;4995843;28;20034;-87
2022/07/28 03:39:11;;;;;;;1.58;1.48;;;;;;;12.48;66.75;101840.56;4995215;28;20034;-87
2022/07/28 03:41:39;;;;;;;1.73;1.55;;;;;;;12.48;68.19;101840.56;4996511;28;20386;-87
2022/07/28 03:44:06;;;;;;;2.75;2.00;;;;;;;12.44;67.84;101836.25;4996118;28;20030;-87
2022/07/28 03:46:32;;;;;;;3.20;2.17;;;;;;;12.36;68.64;101835.44;4996093;28;20026;-87
2022/07/28 03:48:57;;;;;;;3.88;2.13;;;;;;;12.32;68.79;101831.13;4995881;28;20065;-88
2022/07/28 03:51:24;;;;;;;2.97;2.10;;;;;;;12.33;67.70;101831.09;4996075;28;20455;-88
2022/07/28 03:53:49;;;;;;;2.00;1.80;;;;;;;12.34;67.83;101835.44;4996057;28;20065;-87
2022/07/28 03:56:35;;;;;;;1.70;1.60;;;;;;;12.33;68.08;101836.31;4995161;28;20030;-88
2022/07/28 03:59:03;;;;;;;1.45;1.35;;;;;;;12.31;67.29;101832.00;4994869;28;20038;-87
2022/07/28 04:01:29;;;;;;;2.88;1.73;;;;;;;12.28;68.98;101829.41;4995699;28;20026;-87
2022/07/28 04:03:54;;;;;;;1.90;1.80;;;;;;;12.28;69.22;101832.00;4995464;28;20113;-88
2022/07/28 04:06:20;;;;;;;2.33;1.80;;;;;;;12.24;68.10;101830.31;4995889;28;20022;-88
2022/07/28 04:09:03;;;;;;;3.53;2.00;;;;;;;12.19;69.27;101820.78;4995709;28;20029;-88
2022/07/28 04:11:29;;;;;;;3.53;2.03;;;;;;;12.17;68.61;101835.53;4995893;28;20034;-87
2022/07/28 04:13:55;;;;;;;2.73;2.10;;;;;;;12.10;69.42;101828.66;4995187;28;20062;-87
2022/07/28 04:16:32;;;;;;;4.25;2.10;;;;;;;12.07;69.38;101833.88;4995146;28;20464;-87
2022/07/28 04:18:58;;;;;;;2.13;1.83;;;;;;;12.10;69.04;101830.41;4995700;28;20022;-88
2022/07/28 04:21:23;;;;;;;2.40;1.80;;;;;;;12.12;68.93;101833.84;4996015;28;20048;-87
2022/07/28 04:23:49;;;;;;;2.20;2.00;;;;;;;12.11;69.80;101839.91;4995363;28;20426;-88
2022/07/28 04:26:32;;;;;;;4.90;2.40;;;;;;;12.06;69.79;101824.34;4995772;28;20033;-88
2022/07/28 04:28:57;;;;;;;2.67;1.83;;;;;;;12.09;70.12;101823.47;4995011;28;20097;-88
2022/07/28 04:31:23;;;;;;;5.30;2.20;;;;;;;12.06;70.72;101829.53;4994965;28;20573;-88
2022/07/28 04:33:49;;;;;;;4.43;2.07;;;;;;;12.12;69.78;101828.63;4995448;28;20026;-87
2022/07/28 04:36:26;;;;;;;2.67;1.80;;;;;;;12.13;69.89;101815.66;4995601;28;20030;-88
2022/07/28 04:38:52;;;;;;;4.07;2.10;;;;;;;12.09;70.94;101826.94;4995116;28;20554;-87
2022/07/28 04:41:17;;;;;;;3.93;2.10;;;;;;;12.15;70.02;101820.81;4995206;28;20018;-89
2022/07/28 04:43:44;;;;;;;4.23;1.90;;;;;;;12.18;69.42;101826.88;4994699;28;20030;-87
2022/07/28 04:46:24;;;;;;;3.33;2.08;;;;;;;12.19;70.55;101820.78;4994781;28;20034;-87
2022/07/28 04:48:49;;;;;;;3.28;2.28;;;;;;;12.18;71.12;101821.66;4994610;28;20022;-86
2022/07/28 04:51:14;;;;;;;4.27;2.10;;;;;;;12.24;70.52;101820.75;4994092;28;20383;-87
2022/07/28 04:53:40;;;;;;;3.00;1.93;;;;;;;12.23;69.87;101815.59;4994725;28;20049;-87
2022/07/28 04:56:05;;;;;;;3.70;1.87;;;;;;;12.29;69.50;101820.72;4994994;28;20022;-87
2022/07/28 04:58:31;;;;;;;4.47;2.10;;;;;;;12.32;69.68;101824.19;4994639;28;20496;-87
2022/07/28 05:00:56;;;;;;;2.97;1.90;;;;;;;12.35;70.47;101829.38;4994576;28;20030;-87
2022/07/28 05:03:21;;;;;;;3.80;2.10;;;;;;;12.32;70.03;101825.91;4993772;28;20287;-91
2022/07/28 05:05:47;;;;;;;5.67;2.30;;;;;;;12.29;71.44;101823.34;4995516;28;20030;-88
2022/07/28 05:08:12;;;;;;;4.57;2.13;;;;;;;12.29;70.34;101824.22;4994867;28;20037;-88
2022/07/28 05:10:37;;;;;;;4.43;2.07;;;;;;;12.33;70.65;101825.91;4994596;28;20061;-92
2022/07/28 05:13:21;;;;;;;6.10;2.47;;;;;;;12.33;71.11;101828.50;4995582;28;20058;-93
2022/07/28 05:15:46;;;;;;;3.03;2.00;;;;;;;12.35;70.96;101821.56;4995577;28;20026;-94
2022/07/28 05:18:11;;;;;;;3.33;2.20;;;;;;;12.40;71.17;101828.47;4999529;28;20105;-96
2022/07/28 05:20:36;;;;;;;3.73;2.20;;;;;;;12.42;71.00;101827.59;4995781;28;20102;-86
2022/07/28 05:23:20;;;;;;;2.67;1.97;;;;;;;12.47;70.66;101841.44;4993595;28;20390;-85
2022/07/28 05:25:46;;;;;;;4.88;2.10;;;;;;;12.49;70.96;101829.28;4993573;28;20027;-85
2022/07/28 05:28:11;;;;;;;4.30;2.20;;;;;;;12.55;71.10;101835.31;4993406;28;20529;-86
2022/07/28 05:30:37;;;;;;;4.70;2.37;;;;;;;12.59;70.34;101835.28;4993344;28;20374;-84
2022/07/28 05:33:17;;;;;;;5.43;2.40;;;;;;;12.63;70.28;101834.38;4992882;28;20102;-84
2022/07/28 05:35:51;;;;;;;2.40;1.90;;;;;;;12.73;70.54;101836.91;4993929;28;20426;-84
2022/07/28 05:38:26;;;;;;;3.85;2.13;;;;;;;12.80;70.54;101831.63;4996934;28;20052;-84
2022/07/28 05:40:52;;;;;;;6.00;2.42;;;;;;;12.88;70.28;101841.13;4992927;28;20372;-85
2022/07/28 05:43:38;;;;;;;4.13;2.40;;;;;;;12.92;69.66;101830.66;4993733;28;20022;-86
2022/07/28 05:46:04;;;;;;;;;;;;;;;12.96;70.31;101831.47;4993726;28;20050;-86
2022/07/28 05:48:38;;;;;;;3.22;2.20;;;;;;;13.05;69.81;101836.63;4992855;28;19956;-87
2022/07/28 05:51:04;;;;;;;4.38;2.50;;;;;;;13.07;69.84;101829.63;4993362;28;20129;-85
2022/07/28 05:53:29;;;;;;;3.53;2.40;;;;;;;13.15;69.63;101836.53;4993097;28;20121;-85
2022/07/28 05:56:12;;;;;;;3.10;2.30;;;;;;;13.27;69.23;101831.19;4992013;28;20038;-85
2022/07/28 05:58:49;;;;;;;6.38;2.38;;;;;;;13.34;68.90;101834.59;4993452;28;20038;-85
2022/07/28 06:03:57;;;;;;;3.67;2.05;;;;;;;13.63;68.85;101834.25;5172784;23;20061;-85
2022/07/28 06:06:28;;;;;;;6.40;2.40;;;;;;;13.74;68.22;101840.22;4993437;28;20022;-85
2022/07/28 06:08:54;;;;;;;4.15;2.20;;;;;;;13.83;67.82;101839.25;4986802;28;20033;-85
2022/07/28 06:11:19;;;;;;;3.37;2.23;;;;;;;13.88;67.25;101845.28;4984488;28;20475;-84
2022/07/28 06:13:45;;;;;;;5.93;2.30;;;;;;;13.89;67.49;101839.19;4993333;28;20058;-83
2022/07/28 06:16:10;;;;;;;6.43;2.40;;;;;;;13.98;67.43;101840.78;4992150;28;20038;-89
2022/07/28 06:18:36;;;;;;;4.67;2.47;;;;;;;14.01;67.54;101838.13;4992624;28;20128;-89
2022/07/28 06:21:02;;;;;;;3.77;2.13;;;;;;;14.09;66.82;101838.03;4983995;28;20092;-88
2022/07/28 06:23:27;;;;;;;4.80;2.40;;;;;;;14.14;66.02;101845.78;4990617;28;20065;-86
2022/07/28 06:25:53;;;;;;;5.93;2.70;;;;;;;14.10;66.14;101841.50;4990906;28;20109;-85
2022/07/28 06:28:19;;;;;;;2.93;2.30;;;;;;;14.21;66.70;101836.97;4992376;28;20034;-90
2022/07/28 06:31:10;;;;;;;1.98;1.77;;;;;;;14.34;66.61;101832.47;4993034;28;20018;-95
2022/07/28 06:33:41;;;;;;;5.43;2.40;;;;;;;14.39;65.37;101837.59;4994207;28;20497;-94
2022/07/28 06:36:06;;;;;;;4.47;2.40;;;;;;;14.44;65.53;101833.16;4991401;28;20117;-83
2022/07/28 06:38:35;;;;;;;3.10;2.10;;;;;;;14.59;65.39;101827.69;4993079;28;20157;-82
2022/07/28 06:41:00;;;;;;;4.85;2.17;;;;;;;14.70;64.96;101838.00;4993026;28;20442;-87
2022/07/28 06:43:25;;;;;;;5.37;2.40;;;;;;;15.33;64.93;101843.84;4992221;28;20031;-86
2022/07/28 06:45:51;;;;;;;4.87;2.50;;;;;;;16.46;58.56;101840.59;4993123;28;20019;-87
2022/07/28 06:48:25;;;;;;;4.57;2.33;;;;;;;16.33;59.59;101832.16;4992913;28;20070;-86
2022/07/28 06:51:00;;;;;;;4.13;2.25;;;;;;;16.97;57.64;101834.97;4992193;28;20014;-86
2022/07/28 06:53:31;;;;;;;4.25;2.25;;;;;;;17.02;57.58;101834.84;4992915;28;20033;-86
2022/07/28 06:56:04;;;;;;;3.30;2.08;;;;;;;16.85;57.97;101831.78;4993238;28;20069;-86
2022/07/28 06:58:29;;;;;;;7.05;2.22;;;;;;;16.49;58.04;101841.38;4992365;28;20057;-86
2022/07/28 07:00:54;;;;;;;3.00;1.93;;;;;;;16.71;58.40;101838.22;4992406;28;20046;-86
2022/07/28 07:03:19;;;;;;;2.77;1.80;;;;;;;17.11;57.54;101833.75;4992924;28;20121;-87
2022/07/28 07:05:45;;;;;;;4.20;1.90;;;;;;;17.63;55.91;101841.03;4992204;28;20088;-86
2022/07/28 07:08:10;;;;;;;3.20;1.90;;;;;;;17.84;55.07;101835.19;4995838;28;20085;-86
2022/07/28 07:10:35;;;;;;;3.77;1.53;;;;;;;18.09;55.37;101830.97;4996345;28;20037;-87
2022/07/28 07:13:01;;;;;;;4.50;1.70;;;;;;;18.21;55.36;101838.47;4995228;28;20026;-86
2022/07/28 07:15:26;;;;;;;2.50;1.43;;;;;;;18.25;55.05;101832.19;4996317;28;20027;-86
2022/07/28 07:17:53;;;;;;;2.87;1.50;;;;;;;18.28;53.56;101837.34;4995781;28;20038;-86
2022/07/28 07:20:19;;;;;;;;;;;;;;;18.28;54.70;101834.72;5047942;23;20058;-88
2022/07/28 07:23:00;;;;;;;3.88;1.90;;;;;;;18.07;54.33;101838.88;4994905;28;19971;-86
2022/07/28 07:25:25;;;;;;;2.67;1.95;;;;;;;17.85;54.01;101834.25;4994524;28;20113;-87
2022/07/28 07:28:03;;;;;;;3.20;1.87;;;;;;;17.78;55.31;101834.50;4995643;28;20092;-86
2022/07/28 07:30:28;;;;;;;4.38;1.70;;;;;;;17.83;54.77;101835.22;4996310;28;20022;-86
2022/07/28 07:32:54;;;;;;;3.10;1.97;;;;;;;17.95;55.54;101834.84;4995482;28;20378;-86
2022/07/28 07:35:19;;;;;;;3.53;1.93;;;;;;;17.85;53.89;101836.88;4996076;28;20026;-86
2022/07/28 07:37:44;;;;;;;4.60;1.80;;;;;;;17.85;53.96;101836.03;4995471;28;20442;-87
2022/07/28 07:40:10;;;;;;;2.40;1.53;;;;;;;17.95;53.58;101836.63;4995133;28;20421;-87
2022/07/28 07:42:35;;;;;;;5.40;2.00;;;;;;;17.98;54.78;101826.91;4996079;28;20022;-87
2022/07/28 07:45:00;;;;;;;4.73;1.73;;;;;;;18.24;54.76;101822.59;4995713;28;20038;-87
2022/07/28 07:47:26;;;;;;;6.40;1.87;;;;;;;18.42;54.21;101822.91;4994896;28;20045;-87
2022/07/28 07:49:51;;;;;;;4.67;1.90;;;;;;;18.53;52.82;101829.53;4995573;28;20109;-86
2022/07/28 07:52:16;;;;;;;3.47;1.43;;;;;;;18.37;53.45;101817.81;4995786;28;20127;-86
2022/07/28 07:54:42;;;;;;;1.73;1.50;;;;;;;18.18;53.65;101820.16;4994707;28;20018;-85
2022/07/28 07:57:08;;;;;;;3.90;1.77;;;;;;;17.85;52.92;101818.50;4995385;28;20360;-86
2022/07/28 07:59:33;;;;;;;4.70;1.70;;;;;;;17.94;53.56;101821.78;4995635;28;20026;-87
2022/07/28 08:01:59;;;;;;;3.00;1.90;;;;;;;17.99;53.26;101818.13;4994589;28;20029;-87
2022/07/28 08:04:24;;;;;;;3.50;1.77;;;;;;;17.82;52.79;101817.75;4995442;28;20018;-85
2022/07/28 08:06:50;;;;;;;3.17;1.90;;;;;;;17.83;53.76;101822.97;4995109;28;20037;-86
2022/07/28 08:09:23;;;;;;;3.83;1.93;;;;;;;17.96;53.61;101823.44;4994840;28;20034;-86
2022/07/28 08:11:49;;;;;;;3.22;1.58;;;;;;;18.11;53.04;101823.91;4994980;28;20630;-88
2022/07/28 08:14:14;;;;;;;2.60;1.57;;;;;;;18.23;51.55;101814.75;4995497;28;20071;-86
2022/07/28 08:16:39;;;;;;;1.77;1.50;;;;;;;18.31;52.73;101818.88;4995110;28;20018;-86
2022/07/28 08:19:05;;;;;;;4.00;1.60;;;;;;;18.49;52.27;101819.16;4994233;28;20029;-86
2022/07/28 08:21:30;;;;;;;5.77;1.83;;;;;;;18.50;51.26;101813.88;4994280;28;20042;-87
2022/07/28 08:23:56;;;;;;;2.20;1.37;;;;;;;18.61;52.77;101810.03;4994664;28;20080;-87
2022/07/28 08:26:22;;;;;;;2.40;1.45;;;;;;;18.77;52.19;101819.09;4995250;28;20026;-87
2022/07/28 08:28:47;;;;;;;1.40;1.30;;;;;;;18.92;51.63;101809.81;4991001;28;20089;-86
2022/07/28 08:31:15;;;;;;;4.20;1.70;;;;;;;18.98;50.54;101807.00;4991930;28;20030;-86
2022/07/28 08:33:41;;;;;;;1.60;1.20;;;;;;;19.18;53.19;101815.97;4994638;28;20265;-87
2022/07/28 08:36:06;;;;;;;1.87;1.53;;;;;;;19.30;50.85;101817.31;4992319;28;20033;-87
2022/07/28 08:38:32;;;;;;;2.93;1.70;;;;;;;19.32;49.18;101823.34;4975567;28;20027;-86
2022/07/28 08:40:58;;;;;;;1.80;1.50;;;;;;;19.19;50.74;101819.47;4995539;28;20176;-86
2022/07/28 08:43:34;;;;;;;5.65;1.80;;;;;;;19.14;49.55;101815.22;4994541;28;20080;-86
2022/07/28 08:46:03;;;;;;;6.60;2.10;;;;;;;19.10;49.72;101813.59;4994718;28;20053;-87
2022/07/28 08:48:36;;;;;;;4.95;1.83;;;;;;;19.25;49.33;101811.34;4994432;28;20022;-88
2022/07/28 08:51:08;;;;;;;5.05;1.90;;;;;;;19.11;49.46;101810.06;4993383;28;20560;-87
2022/07/28 08:53:35;;;;;;;4.40;1.85;;;;;;;19.03;49.81;101813.91;4994661;28;20026;-87
2022/07/28 08:56:08;;;;;;;3.25;1.83;;;;;;;19.10;50.89;101808.34;4993435;28;20022;-87
2022/07/28 08:58:36;;;;;;;2.42;1.80;;;;;;;18.91;49.58;101817.78;4993527;28;20027;-86
2022/07/28 09:01:03;;;;;;;3.78;1.70;;;;;;;19.00;50.85;101806.09;4992858;28;20030;-86
2022/07/28 09:03:29;;;;;;;4.15;1.88;;;;;;;19.14;49.86;101804.69;4993201;28;20026;-88
2022/07/28 09:05:55;;;;;;;3.13;1.53;;;;;;;19.35;50.29;101809.25;4991607;28;20030;-87
2022/07/28 09:08:37;;;;;;;3.35;1.85;;;;;;;19.40;49.40;101807.28;4992618;28;20479;-87
2022/07/28 09:11:02;;;;;;;2.78;1.83;;;;;;;19.29;49.90;101807.69;4990875;28;20031;-88
2022/07/28 09:13:28;;;;;;;5.07;2.00;;;;;;;19.27;49.87;101797.19;4992668;28;20046;-88
2022/07/28 09:15:53;;;;;;;4.03;1.70;;;;;;;19.23;49.35;101805.25;4993040;28;20517;-86
2022/07/28 09:18:36;;;;;;;3.47;1.70;;;;;;;19.24;49.79;101789.44;4993580;28;20014;-87
2022/07/28 09:21:01;;;;;;;3.92;1.90;;;;;;;19.40;49.85;101789.72;4999129;23;20521;-87
2022/07/28 09:23:42;;;;;;;1.60;1.50;;;;;;;19.69;49.72;101773.72;4994136;28;20102;-87
2022/07/28 09:26:08;;;;;;;2.97;1.67;;;;;;;19.87;49.69;101773.03;4992952;28;20490;-88
2022/07/28 09:28:44;;;;;;;;;;;;;;;19.88;47.84;101779.13;4994606;28;20026;-89
2022/07/28 09:31:10;;;;;;;2.72;1.73;;;;;;;19.99;49.24;101765.56;4993222;28;19924;-87
2022/07/28 09:33:35;;;;;;;3.50;1.73;;;;;;;20.09;47.94;101766.06;4993280;28;20022;-89
2022/07/28 09:36:01;;;;;;;8.00;1.90;;;;;;;20.19;47.94;101768.22;4994112;28;20055;-88
2022/07/28 09:38:26;;;;;;;3.07;1.60;;;;;;;20.23;47.03;101762.84;4994199;28;20467;-88
2022/07/28 09:41:03;;;;;;;4.13;1.80;;;;;;;20.19;47.29;101751.56;4993271;28;20026;-86
2022/07/28 09:43:36;;;;;;;4.07;1.70;;;;;;;20.37;47.23;101753.44;4993463;28;20036;-85
2022/07/28 09:46:19;;;;;;;4.95;2.00;;;;;;;20.43;46.83;101748.84;4992859;28;20152;-84
2022/07/28 09:48:54;;;;;;;4.75;1.45;;;;;;;20.46;47.88;101744.28;4993848;28;20150;-85
2022/07/28 09:51:25;;;;;;;5.85;2.00;;;;;;;20.38;45.93;101733.19;4993194;28;20360;-85
2022/07/28 09:53:52;;;;;;;3.47;1.77;;;;;;;20.56;46.51;101739.44;4992597;28;20072;-85
2022/07/28 09:56:17;;;;;;;3.95;1.75;;;;;;;20.48;46.21;101741.56;4993901;28;20122;-85
2022/07/28 09:58:53;;;;;;;2.33;1.50;;;;;;;20.65;46.08;101746.97;4993290;28;20121;-84
2022/07/28 10:01:19;;;;;;;;;;;;;;;20.80;45.99;101757.78;4992567;28;20081;-85
2022/07/28 10:03:51;;;;;;;3.47;1.40;;;;;;;20.98;45.41;101749.09;4993666;28;19913;-84
2022/07/28 10:06:27;;;;;;;4.00;1.45;;;;;;;20.95;43.93;101750.97;4993523;28;20053;-84
2022/07/28 10:08:55;;;;;;;2.30;1.30;;;;;;;21.03;45.24;101742.72;4986629;28;20034;-85
2022/07/28 10:11:25;;;;;;;4.45;1.90;;;;;;;20.88;43.09;101749.56;4993352;28;20085;-85
2022/07/28 10:13:51;;;;;;;3.22;1.60;;;;;;;20.75;43.68;101751.88;4993391;28;20058;-83
2022/07/28 10:16:17;;;;;;;3.57;1.60;;;;;;;20.65;44.29;101739.06;4992709;28;20046;-83
2022/07/28 10:18:43;;;;;;;3.17;1.50;;;;;;;20.93;44.29;101737.03;4992952;28;20559;-86
2022/07/28 10:21:12;;;;;;;2.13;1.40;;;;;;;21.16;44.70;101737.75;4992164;28;20479;-85
2022/07/28 10:23:41;;;;;;;2.45;1.25;;;;;;;21.39;45.28;101732.25;4993347;28;20030;-85
2022/07/28 10:26:09;;;;;;;4.10;1.50;;;;;;;21.56;42.86;101739.38;4993098;28;20539;-84
2022/07/28 10:28:43;;;;;;;2.33;1.30;;;;;;;21.69;42.46;101725.59;4991901;28;20113;-84
2022/07/28 10:31:13;;;;;;;2.28;1.30;;;;;;;21.85;40.97;101733.66;4992920;28;20053;-84
2022/07/28 10:33:45;;;;;;;1.77;1.15;;;;;;;21.94;43.56;101737.63;4993134;28;20114;-85
2022/07/28 10:36:11;;;;;;;1.63;1.20;;;;;;;22.12;43.57;101731.44;4992042;28;20031;-85
2022/07/28 10:38:38;;;;;;;3.03;1.17;;;;;;;22.30;42.42;101726.16;4993314;28;20037;-85
2022/07/28 10:41:07;;;;;;;3.53;1.60;;;;;;;22.29;42.13;101722.63;4993183;28;20080;-85
2022/07/28 10:43:34;;;;;;;4.35;1.90;;;;;;;22.21;41.30;101724.81;4996204;28;20080;-84
2022/07/28 10:46:00;;;;;;;2.50;1.30;;;;;;;22.43;42.36;101726.41;4996014;28;20026;-84
2022/07/28 10:48:26;;;;;;;2.72;1.30;;;;;;;22.41;41.14;101726.50;4996916;28;20023;-84
2022/07/28 10:50:56;;;;;;;3.07;1.50;;;;;;;22.44;41.41;101728.13;4996093;28;20080;-84
2022/07/28 10:53:37;;;;;;;4.93;1.60;;;;;;;22.37;41.26;101728.41;4996490;28;20045;-84
2022/07/28 10:56:11;;;;;;;2.83;1.67;;;;;;;22.38;41.09;101726.59;4996728;28;20073;-84
2022/07/28 10:58:57;;;;;;;3.00;1.30;;;;;;;22.55;41.21;101719.63;4996415;28;20037;-84
2022/07/28 11:01:34;;;;;;;2.78;1.17;;;;;;;22.71;40.88;101722.34;4996648;28;20041;-86
2022/07/28 11:03:59;;;;;;;3.38;1.52;;;;;;;22.68;40.23;101715.41;4995595;28;20113;-84
2022/07/28 11:06:39;;;;;;;3.13;1.17;;;;;;;22.81;39.58;101723.56;4996483;28;20170;-84
2022/07/28 11:09:16;;;;;;;1.35;1.25;;;;;;;23.00;40.67;101720.78;4996609;28;20038;-84
2022/07/28 11:11:45;;;;;;;2.95;1.40;;;;;;;23.01;38.36;101718.97;4995320;28;20065;-86
2022/07/28 11:14:36;;;;;;;2.35;1.10;;;;;;;23.17;39.41;101709.28;4995988;28;20029;-86
2022/07/28 11:17:04;;;;;;;1.77;1.02;;;;;;;23.35;39.17;101719.81;4996180;28;20530;-86
2022/07/28 11:19:50;;;;;;;2.97;1.30;;;;;;;23.28;40.26;101701.63;4995666;28;20096;-87
2022/07/28 11:22:20;;;;;;;2.90;1.52;;;;;;;23.24;37.74;101708.00;4996290;28;20042;-86
2022/07/28 11:24:59;;;;;;;3.85;1.42;;;;;;;23.16;37.73;101704.91;4995726;28;20034;-86
2022/07/28 11:28:00;;;;;;;3.90;1.50;;;;;;;23.34;39.18;101696.91;4996226;28;20037;-85
2022/07/28 11:30:31;;;;;;;2.97;1.38;;;;;;;23.26;37.86;101692.91;4944387;28;20042;-87
2022/07/28 11:32:57;;;;;;;2.55;1.38;;;;;;;23.45;39.23;101694.50;4995120;28;20521;-87
2022/07/28 11:35:30;;;;;;;1.27;1.20;;;;;;;23.65;39.51;101692.50;4996217;28;20030;-87
2022/07/28 11:38:02;;;;;;;1.63;1.40;;;;;;;23.74;36.74;101687.53;4995316;28;20479;-86
2022/07/28 11:40:34;;;;;;;3.25;1.45;;;;;;;23.80;38.23;101683.69;4995358;28;20041;-86
2022/07/28 11:45:48;;;;;;;1.25;1.15;;;;;;;24.16;38.14;101686.94;4995322;28;20117;-85
2022/07/28 11:48:22;;;;;;;3.00;1.45;;;;;;;24.07;35.52;101680.41;4995460;28;20372;-84